createdAt,value
2018-07-01T00:00:37.746Z,11.17
2018-07-01T00:01:37.777Z,11.21
2018-07-01T00:02:37.751Z,11.19
2018-07-01T00:03:37.757Z,11.14
2018-07-01T00:04:37.736Z,11.09
2018-07-01T00:05:37.726Z,11.10
2018-07-01T00:06:37.740Z,11.06
2018-07-01T00:07:37.709Z,11.10
2018-07-01T00:08:37.802Z,11.03
2018-07-01T00:09:37.715Z,10.96
2018-07-01T00:10:37.759Z,10.88
2018-07-01T00:11:37.703Z,10.78
2018-07-01T00:12:37.708Z,10.77
2018-07-01T00:13:37.710Z,10.77
2018-07-01T00:14:37.704Z,10.81
2018-07-01T00:15:37.736Z,10.76
2018-07-01T00:16:37.733Z,10.80
2018-07-01T00:17:37.769Z,10.77
2018-07-01T00:18:37.752Z,10.78
2018-07-01T00:19:37.729Z,10.76
2018-07-01T00:20:37.794Z,10.74
2018-07-01T00:21:37.750Z,10.70
2018-07-01T00:22:37.718Z,10.76
2018-07-01T00:23:37.735Z,10.66
2018-07-01T00:24:37.808Z,10.71
2018-07-01T00:25:37.737Z,10.60
2018-07-01T00:26:37.758Z,10.59
2018-07-01T00:27:37.715Z,10.60
2018-07-01T00:28:37.735Z,10.60
2018-07-01T00:29:37.759Z,10.66
2018-07-01T00:30:37.711Z,10.73
2018-07-01T00:31:37.714Z,10.60
2018-07-01T00:32:37.744Z,10.63
2018-07-01T00:33:37.724Z,10.63
2018-07-01T00:34:40.334Z,10.55
2018-07-01T00:35:37.759Z,10.58
2018-07-01T00:36:37.749Z,10.63
2018-07-01T00:37:37.735Z,10.56
2018-07-01T00:38:37.727Z,10.58
2018-07-01T00:39:37.757Z,10.55
2018-07-01T00:40:37.738Z,10.59
2018-07-01T00:41:37.761Z,10.58
2018-07-01T00:42:37.712Z,10.58
2018-07-01T00:43:37.699Z,10.56
2018-07-01T00:44:37.750Z,10.51
2018-07-01T00:45:37.719Z,10.43
2018-07-01T00:46:37.720Z,10.36
2018-07-01T00:47:37.708Z,10.30
2018-07-01T00:48:37.763Z,10.33
2018-07-01T00:49:37.728Z,10.25
2018-07-01T00:50:37.729Z,10.25
2018-07-01T00:51:37.713Z,10.15
2018-07-01T00:52:37.757Z,10.19
2018-07-01T00:53:37.723Z,10.17
2018-07-01T00:54:37.739Z,10.10
2018-07-01T00:55:37.715Z,10.07
2018-07-01T00:56:37.726Z,9.97
2018-07-01T00:57:37.697Z,9.94
2018-07-01T00:58:37.733Z,9.96
2018-07-01T00:59:37.730Z,9.94
2018-07-01T01:00:37.716Z,10.07
2018-07-01T01:01:37.736Z,10.06
2018-07-01T01:02:37.684Z,10.09
2018-07-01T01:03:37.703Z,10.14
2018-07-01T01:04:37.756Z,10.06
2018-07-01T01:05:37.759Z,10.07
2018-07-01T01:06:37.752Z,10.17
2018-07-01T01:07:37.792Z,10.15
2018-07-01T01:08:37.706Z,10.17
2018-07-01T01:09:37.689Z,10.15
2018-07-01T01:10:37.724Z,10.21
2018-07-01T01:11:38.427Z,10.17
2018-07-01T01:12:37.767Z,10.15
2018-07-01T01:13:37.660Z,10.21
2018-07-01T01:14:37.727Z,10.18
2018-07-01T01:15:37.773Z,10.25
2018-07-01T01:16:37.724Z,10.17
2018-07-01T01:17:37.678Z,10.17
2018-07-01T01:18:37.762Z,10.17
2018-07-01T01:19:37.692Z,10.12
2018-07-01T01:20:37.686Z,10.09
2018-07-01T01:21:37.706Z,10.09
2018-07-01T01:22:37.719Z,10.04
2018-07-01T01:23:37.670Z,10.10
2018-07-01T01:24:37.728Z,10.07
2018-07-01T01:25:37.728Z,10.12
2018-07-01T01:26:37.662Z,10.17
2018-07-01T01:27:37.748Z,10.24
2018-07-01T01:28:37.705Z,10.18
2018-07-01T01:29:37.720Z,10.14
2018-07-01T01:30:37.693Z,10.18
2018-07-01T01:31:37.746Z,10.15
2018-07-01T01:32:38.378Z,10.07
2018-07-01T01:33:37.667Z,9.99
2018-07-01T01:34:37.674Z,10.01
2018-07-01T01:35:37.737Z,9.94
2018-07-01T01:36:37.894Z,9.83
2018-07-01T01:37:37.677Z,9.93
2018-07-01T01:38:37.716Z,9.82
2018-07-01T01:39:37.709Z,9.71
2018-07-01T01:40:37.708Z,9.73
2018-07-01T01:41:37.772Z,9.78
2018-07-01T01:42:37.681Z,9.76
2018-07-01T01:43:37.712Z,9.79
2018-07-01T01:44:37.667Z,9.82
2018-07-01T01:45:37.636Z,9.94
2018-07-01T01:46:37.674Z,10.07
2018-07-01T01:47:37.686Z,10.03
2018-07-01T01:48:37.750Z,10.03
2018-07-01T01:49:39.339Z,10.03
2018-07-01T01:50:37.787Z,10.01
2018-07-01T01:51:37.665Z,9.91
2018-07-01T01:52:37.612Z,9.89
2018-07-01T01:53:37.769Z,9.94
2018-07-01T01:54:37.663Z,9.83
2018-07-01T01:55:37.795Z,9.78
2018-07-01T01:56:37.619Z,9.79
2018-07-01T01:57:37.607Z,9.81
2018-07-01T01:58:38.376Z,9.79
2018-07-01T01:59:37.712Z,9.63
2018-07-01T02:00:37.611Z,9.66
2018-07-01T02:01:37.665Z,9.57
2018-07-01T02:02:37.623Z,9.57
2018-07-01T02:03:37.619Z,9.53
2018-07-01T02:04:46.838Z,9.60
2018-07-01T02:06:44.366Z,9.58
2018-07-01T02:09:33.604Z,9.52
2018-07-01T02:10:28.912Z,9.53
2018-07-01T02:11:29.921Z,9.45
2018-07-01T02:12:28.812Z,9.45
2018-07-01T02:13:29.394Z,9.48
2018-07-01T02:14:28.746Z,9.45
2018-07-01T02:15:28.856Z,9.42
2018-07-01T02:16:28.884Z,9.53
2018-07-01T02:17:28.907Z,9.53
2018-07-01T02:18:28.559Z,9.42
2018-07-01T02:19:28.626Z,9.46
2018-07-01T02:20:28.522Z,9.38
2018-07-01T02:21:28.574Z,9.40
2018-07-01T02:22:28.724Z,9.45
2018-07-01T02:23:30.431Z,9.56
2018-07-01T02:24:28.586Z,9.53
2018-07-01T02:25:28.461Z,9.50
2018-07-01T02:26:28.573Z,9.53
2018-07-01T02:27:28.500Z,9.53
2018-07-01T02:28:28.531Z,9.56
2018-07-01T02:29:28.627Z,9.53
2018-07-01T02:30:29.516Z,9.53
2018-07-01T02:31:28.474Z,9.43
2018-07-01T02:32:29.337Z,9.45
2018-07-01T02:33:28.458Z,9.40
2018-07-01T02:34:28.534Z,9.42
2018-07-01T02:35:28.563Z,9.25
2018-07-01T02:36:28.559Z,9.25
2018-07-01T02:37:28.698Z,9.24
2018-07-01T02:38:28.668Z,9.24
2018-07-01T02:39:29.413Z,9.30
2018-07-01T02:40:42.217Z,9.15
2018-07-01T02:42:22.235Z,9.18
2018-07-01T02:43:23.222Z,9.09
2018-07-01T02:44:22.188Z,9.25
2018-07-01T02:45:22.456Z,9.18
2018-07-01T02:46:21.945Z,9.15
2018-07-01T02:47:22.077Z,9.18
2018-07-01T02:48:21.921Z,9.12
2018-07-01T02:49:22.017Z,9.21
2018-07-01T02:50:22.125Z,9.15
2018-07-01T02:51:21.942Z,9.20
2018-07-01T02:52:21.836Z,9.18
2018-07-01T02:53:21.873Z,9.12
2018-07-01T02:54:26.507Z,9.09
2018-07-01T02:55:21.843Z,9.25
2018-07-01T02:56:24.027Z,9.23
2018-07-01T02:57:21.862Z,9.24
2018-07-01T02:58:21.943Z,9.23
2018-07-01T02:59:22.007Z,9.28
2018-07-01T03:00:30.939Z,9.18
2018-07-01T03:02:35.086Z,9.24
2018-07-01T03:03:16.700Z,9.15
2018-07-01T03:04:16.650Z,9.15
2018-07-01T03:05:16.688Z,9.13
2018-07-01T03:06:18.089Z,9.15
2018-07-01T03:07:17.521Z,9.15
2018-07-01T03:08:16.611Z,9.15
2018-07-01T03:09:16.665Z,9.13
2018-07-01T03:10:16.659Z,9.10
2018-07-01T03:11:16.678Z,9.02
2018-07-01T03:12:16.288Z,8.99
2018-07-01T03:13:16.344Z,8.96
2018-07-01T03:14:16.524Z,8.97
2018-07-01T03:15:16.382Z,9.01
2018-07-01T03:16:18.409Z,9.01
2018-07-01T03:17:16.729Z,8.93
2018-07-01T03:18:17.427Z,8.97
2018-07-01T03:19:16.559Z,8.93
2018-07-01T03:20:16.629Z,8.97
2018-07-01T03:21:16.403Z,8.96
2018-07-01T03:22:16.343Z,8.96
2018-07-01T03:23:58.396Z,9.01
2018-07-01T03:25:15.588Z,9.04
2018-07-01T03:27:51.067Z,9.15
2018-07-01T03:28:43.147Z,9.16
2018-07-01T03:29:43.547Z,9.13
2018-07-01T03:30:41.879Z,9.15
2018-07-01T03:31:41.236Z,9.20
2018-07-01T03:32:41.281Z,9.13
2018-07-01T03:33:43.105Z,9.12
2018-07-01T03:34:41.260Z,9.13
2018-07-01T03:35:41.190Z,9.10
2018-07-01T03:36:41.242Z,9.25
2018-07-01T03:37:41.145Z,9.27
2018-07-01T03:38:41.045Z,9.27
2018-07-01T03:39:42.975Z,9.25
2018-07-01T03:40:41.026Z,9.23
2018-07-01T03:41:41.102Z,9.21
2018-07-01T03:42:42.902Z,9.30
2018-07-01T03:43:42.852Z,9.24
2018-07-01T03:44:40.995Z,9.10
2018-07-01T03:45:41.049Z,9.12
2018-07-01T03:46:41.168Z,9.10
2018-07-01T03:47:41.194Z,9.10
2018-07-01T03:48:44.775Z,9.15
2018-07-01T03:49:42.822Z,9.20
2018-07-01T03:50:42.786Z,9.23
2018-07-01T03:51:40.997Z,9.30
2018-07-01T03:52:41.190Z,9.10
2018-07-01T03:53:41.109Z,9.15
2018-07-01T03:54:40.960Z,9.13
2018-07-01T03:55:41.074Z,9.27
2018-07-01T03:56:42.786Z,9.25
2018-07-01T03:57:40.993Z,9.32
2018-07-01T03:58:41.141Z,9.35
2018-07-01T03:59:40.944Z,9.35
2018-07-01T04:00:43.830Z,9.46
2018-07-01T04:01:40.952Z,9.52
2018-07-01T04:02:42.758Z,9.60
2018-07-01T04:03:42.771Z,9.70
2018-07-01T04:04:40.882Z,9.73
2018-07-01T04:05:41.034Z,9.79
2018-07-01T04:06:43.734Z,9.78
2018-07-01T04:07:40.920Z,9.76
2018-07-01T04:08:40.939Z,9.76
2018-07-01T04:09:40.974Z,9.82
2018-07-01T04:10:40.983Z,9.88
2018-07-01T04:11:40.917Z,9.94
2018-07-01T04:12:40.901Z,9.89
2018-07-01T04:13:42.846Z,9.97
2018-07-01T04:14:42.863Z,10.04
2018-07-01T04:15:42.778Z,10.12
2018-07-01T04:16:40.916Z,10.15
2018-07-01T04:17:40.979Z,10.14
2018-07-01T04:18:40.971Z,10.24
2018-07-01T04:19:42.813Z,10.30
2018-07-01T04:20:42.786Z,10.36
2018-07-01T04:21:40.873Z,10.36
2018-07-01T04:22:40.927Z,10.46
2018-07-01T04:23:40.896Z,10.52
2018-07-01T04:24:40.923Z,10.47
2018-07-01T04:25:42.720Z,10.56
2018-07-01T04:26:40.853Z,10.52
2018-07-01T04:27:40.934Z,10.53
2018-07-01T04:28:42.762Z,10.58
2018-07-01T04:29:40.925Z,10.62
2018-07-01T04:30:40.878Z,10.53
2018-07-01T04:31:40.884Z,10.62
2018-07-01T04:32:40.841Z,10.73
2018-07-01T04:33:40.992Z,10.71
2018-07-01T04:34:40.821Z,10.80
2018-07-01T04:35:42.794Z,10.77
2018-07-01T04:36:40.769Z,10.70
2018-07-01T04:37:40.808Z,10.78
2018-07-01T04:38:42.738Z,10.91
2018-07-01T04:39:40.911Z,10.83
2018-07-01T04:40:40.839Z,10.94
2018-07-01T04:41:42.746Z,10.96
2018-07-01T04:42:40.843Z,11.06
2018-07-01T04:43:40.802Z,11.11
2018-07-01T04:44:40.891Z,11.13
2018-07-01T04:45:40.884Z,11.17
2018-07-01T04:46:41.016Z,11.21
2018-07-01T04:47:40.914Z,11.17
2018-07-01T04:48:40.864Z,11.20
2018-07-01T04:49:40.879Z,11.19
2018-07-01T04:50:42.783Z,11.17
2018-07-01T04:51:42.898Z,11.36
2018-07-01T04:52:42.964Z,11.29
2018-07-01T04:53:40.844Z,11.34
2018-07-01T04:54:40.782Z,11.44
2018-07-01T04:55:44.711Z,11.52
2018-07-01T04:56:40.906Z,11.54
2018-07-01T04:57:40.768Z,11.53
2018-07-01T04:58:40.754Z,11.62
2018-07-01T04:59:40.767Z,11.70
2018-07-01T05:00:40.726Z,11.67
2018-07-01T05:01:40.731Z,11.80
2018-07-01T05:02:40.849Z,11.83
2018-07-01T05:03:42.659Z,11.94
2018-07-01T05:04:40.733Z,12.05
2018-07-01T05:05:40.736Z,12.13
2018-07-01T05:06:40.760Z,12.12
2018-07-01T05:07:40.729Z,12.20
2018-07-01T05:08:40.764Z,12.24
2018-07-01T05:09:40.726Z,12.24
2018-07-01T05:10:40.751Z,12.41
2018-07-01T05:11:40.721Z,12.45
2018-07-01T05:12:40.747Z,12.51
2018-07-01T05:13:40.860Z,12.57
2018-07-01T05:14:40.805Z,12.63
2018-07-01T05:15:40.724Z,12.78
2018-07-01T05:16:40.723Z,12.79
2018-07-01T05:17:40.723Z,12.99
2018-07-01T05:18:40.738Z,12.95
2018-07-01T05:19:40.748Z,12.96
2018-07-01T05:20:40.722Z,13.06
2018-07-01T05:21:40.744Z,13.17
2018-07-01T05:22:40.719Z,13.33
2018-07-01T05:23:40.757Z,13.41
2018-07-01T05:24:40.729Z,13.49
2018-07-01T05:27:22.508Z,13.52
2018-07-01T05:28:23.009Z,13.49
2018-07-01T05:30:15.529Z,13.74
2018-07-01T05:31:14.944Z,13.80
2018-07-01T05:33:09.338Z,13.96
2018-07-01T05:34:07.851Z,14.02
2018-07-01T05:36:02.703Z,14.21
2018-07-01T05:37:03.261Z,14.31
2018-07-01T05:38:56.069Z,14.34
2018-07-01T05:39:55.091Z,14.49
2018-07-01T05:41:48.971Z,14.62
2018-07-01T05:42:48.895Z,14.61
2018-07-01T05:44:42.294Z,14.78
2018-07-01T05:45:41.928Z,14.86
2018-07-01T05:47:36.247Z,14.94
2018-07-01T05:48:35.756Z,14.99
2018-07-01T05:50:28.183Z,15.06
2018-07-01T05:51:29.132Z,15.02
2018-07-01T05:53:21.595Z,15.15
2018-07-01T05:54:21.031Z,15.31
2018-07-01T05:55:22.007Z,15.19
2018-07-01T05:56:22.532Z,15.31
2018-07-01T05:57:22.051Z,15.27
2018-07-01T05:58:21.035Z,15.20
2018-07-01T05:59:22.103Z,15.24
2018-07-01T06:00:22.648Z,15.24
2018-07-01T06:01:21.052Z,15.31
2018-07-01T06:02:21.064Z,15.27
2018-07-01T06:03:22.020Z,15.41
2018-07-01T06:04:21.033Z,15.54
2018-07-01T06:05:21.588Z,15.54
2018-07-01T06:06:20.651Z,15.63
2018-07-01T06:07:20.570Z,15.79
2018-07-01T06:08:20.586Z,15.79
2018-07-01T06:09:20.565Z,16.03
2018-07-01T06:10:20.592Z,16.03
2018-07-01T06:11:20.608Z,16.14
2018-07-01T06:12:20.574Z,16.18
2018-07-01T06:13:20.603Z,16.25
2018-07-01T06:14:20.614Z,16.23
2018-07-01T06:15:20.618Z,16.35
2018-07-01T06:16:20.686Z,16.27
2018-07-01T06:17:20.606Z,16.31
2018-07-01T06:18:20.630Z,16.42
2018-07-01T06:19:20.629Z,16.49
2018-07-01T06:20:20.641Z,16.53
2018-07-01T06:21:20.644Z,16.56
2018-07-01T06:22:20.625Z,16.52
2018-07-01T06:23:20.637Z,16.58
2018-07-01T06:24:20.642Z,16.60
2018-07-01T06:25:20.617Z,16.55
2018-07-01T06:26:20.627Z,16.77
2018-07-01T06:27:20.661Z,16.99
2018-07-01T06:28:20.638Z,17.41
2018-07-01T06:29:20.640Z,17.82
2018-07-01T06:30:20.618Z,18.33
2018-07-01T06:31:20.670Z,18.64
2018-07-01T06:32:20.682Z,19.42
2018-07-01T06:33:20.672Z,20.10
2018-07-01T06:34:20.681Z,20.81
2018-07-01T06:35:20.741Z,20.91
2018-07-01T06:36:20.650Z,21.53
2018-07-01T06:37:20.653Z,21.67
2018-07-01T06:38:20.666Z,22.16
2018-07-01T06:39:22.627Z,22.52
2018-07-01T06:40:20.743Z,22.47
2018-07-01T06:41:20.684Z,21.99
2018-07-01T06:42:20.639Z,21.54
2018-07-01T06:43:20.682Z,21.78
2018-07-01T06:44:20.665Z,21.27
2018-07-01T06:45:20.676Z,21.78
2018-07-01T06:46:20.680Z,21.83
2018-07-01T06:47:20.853Z,21.66
2018-07-01T06:48:20.694Z,21.02
2018-07-01T06:49:20.736Z,20.84
2018-07-01T06:50:20.700Z,20.89
2018-07-01T06:51:20.714Z,20.90
2018-07-01T06:52:20.719Z,21.08
2018-07-01T06:53:20.756Z,21.46
2018-07-01T06:54:22.738Z,21.39
2018-07-01T06:55:20.743Z,21.16
2018-07-01T06:56:23.785Z,20.72
2018-07-01T06:57:20.784Z,20.98
2018-07-01T06:58:20.820Z,20.66
2018-07-01T06:59:20.759Z,20.96
2018-07-01T07:00:20.808Z,20.87
2018-07-01T07:01:20.826Z,20.50
2018-07-01T07:02:20.839Z,20.50
2018-07-01T07:03:23.702Z,20.54
2018-07-01T07:04:20.826Z,20.76
2018-07-01T07:05:20.799Z,20.80
2018-07-01T07:06:20.851Z,21.05
2018-07-01T07:07:20.799Z,20.72
2018-07-01T07:08:20.815Z,20.91
2018-07-01T07:09:20.847Z,20.80
2018-07-01T07:10:20.884Z,21.35
2018-07-01T07:11:20.849Z,21.79
2018-07-01T07:12:20.855Z,21.59
2018-07-01T07:13:20.901Z,22.27
2018-07-01T07:14:20.882Z,22.20
2018-07-01T07:15:21.023Z,22.78
2018-07-01T07:16:22.802Z,23.14
2018-07-01T07:17:21.098Z,22.99
2018-07-01T07:18:21.021Z,23.12
2018-07-01T07:19:20.985Z,23.31
2018-07-01T07:20:21.107Z,22.84
2018-07-01T07:21:21.172Z,22.54
2018-07-01T07:22:21.008Z,22.47
2018-07-01T07:23:22.284Z,22.86
2018-07-01T07:24:21.158Z,22.96
2018-07-01T07:25:21.036Z,23.17
2018-07-01T07:26:21.048Z,22.38
2018-07-01T07:27:21.030Z,21.85
2018-07-01T07:28:20.996Z,21.44
2018-07-01T07:29:21.072Z,21.61
2018-07-01T07:30:20.964Z,21.78
2018-07-01T07:31:21.029Z,21.59
2018-07-01T07:32:20.964Z,21.95
2018-07-01T07:33:20.960Z,21.82
2018-07-01T07:34:21.100Z,22.10
2018-07-01T07:35:20.996Z,22.75
2018-07-01T07:36:21.004Z,22.96
2018-07-01T07:37:21.044Z,23.32
2018-07-01T07:38:21.146Z,23.77
2018-07-01T07:39:21.163Z,24.16
2018-07-01T07:40:21.350Z,24.16
2018-07-01T07:41:21.157Z,23.47
2018-07-01T07:42:21.122Z,23.38
2018-07-01T07:43:21.050Z,23.26
2018-07-01T07:44:21.079Z,23.14
2018-07-01T07:45:21.236Z,22.94
2018-07-01T07:46:21.405Z,22.94
2018-07-01T07:47:22.798Z,22.74
2018-07-01T07:48:21.288Z,22.37
2018-07-01T07:49:22.890Z,22.56
2018-07-01T07:50:23.370Z,22.39
2018-07-01T07:51:22.224Z,22.27
2018-07-01T07:52:22.785Z,22.01
2018-07-01T07:53:21.360Z,22.27
2018-07-01T07:54:21.216Z,22.16
2018-07-01T07:55:21.184Z,22.16
2018-07-01T07:56:22.678Z,21.97
2018-07-01T07:59:38.608Z,20.96
2018-07-01T08:00:23.133Z,20.80
2018-07-01T08:02:18.276Z,20.89
2018-07-01T08:03:17.644Z,20.90
2018-07-01T08:05:10.066Z,21.01
2018-07-01T08:06:11.602Z,20.93
2018-07-01T08:07:10.673Z,20.66
2018-07-01T08:08:10.664Z,20.65
2018-07-01T08:09:11.559Z,20.68
2018-07-01T08:10:11.077Z,20.93
2018-07-01T08:11:11.942Z,21.09
2018-07-01T08:12:10.310Z,20.86
2018-07-01T08:13:10.155Z,21.01
2018-07-01T08:14:10.099Z,21.08
2018-07-01T08:15:09.862Z,21.21
2018-07-01T08:16:09.808Z,21.16
2018-07-01T08:17:09.838Z,21.27
2018-07-01T08:18:16.108Z,21.05
2018-07-01T08:19:12.805Z,21.05
2018-07-01T08:20:21.185Z,21.17
2018-07-01T08:22:30.204Z,21.26
2018-07-01T08:23:19.605Z,21.39
2018-07-01T08:25:17.529Z,21.13
2018-07-01T08:26:17.191Z,20.90
2018-07-01T08:27:14.369Z,20.98
2018-07-01T08:28:17.128Z,21.19
2018-07-01T08:29:16.564Z,21.21
2018-07-01T08:30:14.916Z,21.41
2018-07-01T08:31:14.341Z,21.44
2018-07-01T08:32:14.312Z,21.39
2018-07-01T08:33:13.909Z,21.27
2018-07-01T08:34:14.842Z,21.29
2018-07-01T08:35:21.119Z,21.13
2018-07-01T08:36:24.596Z,20.91
2018-07-01T08:38:09.274Z,21.29
2018-07-01T08:39:07.507Z,21.14
2018-07-01T08:40:07.989Z,21.17
2018-07-01T08:41:07.498Z,20.95
2018-07-01T08:42:07.455Z,20.91
2018-07-01T08:43:07.878Z,20.91
2018-07-01T08:44:07.244Z,21.08
2018-07-01T08:45:07.147Z,21.42
2018-07-01T08:46:07.964Z,21.74
2018-07-01T08:47:07.270Z,21.53
2018-07-01T08:48:07.291Z,21.54
2018-07-01T08:49:07.171Z,21.39
2018-07-01T08:50:07.405Z,20.50
2018-07-01T08:51:07.290Z,20.20
2018-07-01T08:52:07.279Z,20.24
2018-07-01T08:53:07.335Z,20.27
2018-07-01T08:54:07.449Z,20.33
2018-07-01T08:55:07.405Z,20.53
2018-07-01T08:56:07.318Z,20.25
2018-07-01T08:57:07.287Z,20.51
2018-07-01T08:58:07.283Z,20.83
2018-07-01T08:59:07.411Z,21.08
2018-07-01T09:00:07.487Z,21.27
2018-07-01T09:01:07.405Z,21.20
2018-07-01T09:02:07.294Z,20.90
2018-07-01T09:03:07.433Z,20.99
2018-07-01T09:04:07.390Z,21.09
2018-07-01T09:05:07.434Z,21.27
2018-07-01T09:06:07.352Z,21.51
2018-07-01T09:07:07.444Z,21.74
2018-07-01T09:08:07.469Z,22.07
2018-07-01T09:09:07.521Z,21.98
2018-07-01T09:10:07.428Z,21.91
2018-07-01T09:11:07.522Z,21.69
2018-07-01T09:12:07.596Z,21.54
2018-07-01T09:13:07.554Z,21.51
2018-07-01T09:14:07.526Z,21.36
2018-07-01T09:15:07.665Z,21.39
2018-07-01T09:16:07.467Z,20.61
2018-07-01T09:17:07.510Z,20.65
2018-07-01T09:18:07.433Z,20.81
2018-07-01T09:19:07.475Z,20.86
2018-07-01T09:20:07.451Z,21.16
2018-07-01T09:21:08.472Z,21.26
2018-07-01T09:22:07.463Z,21.45
2018-07-01T09:23:07.504Z,21.20
2018-07-01T09:24:07.548Z,21.30
2018-07-01T09:25:07.531Z,21.45
2018-07-01T09:26:07.585Z,20.76
2018-07-01T09:27:07.555Z,20.93
2018-07-01T09:28:07.596Z,20.99
2018-07-01T09:29:07.535Z,21.19
2018-07-01T09:30:07.534Z,21.41
2018-07-01T09:31:07.619Z,21.75
2018-07-01T09:32:07.648Z,21.44
2018-07-01T09:33:07.615Z,21.53
2018-07-01T09:34:07.546Z,21.20
2018-07-01T09:35:07.567Z,21.34
2018-07-01T09:36:07.616Z,21.16
2018-07-01T09:37:07.574Z,21.27
2018-07-01T09:38:07.585Z,21.48
2018-07-01T09:39:07.594Z,21.60
2018-07-01T09:40:07.571Z,21.88
2018-07-01T09:41:07.585Z,21.48
2018-07-01T09:42:07.590Z,20.98
2018-07-01T09:43:07.593Z,20.87
2018-07-01T09:44:07.686Z,20.83
2018-07-01T09:45:07.765Z,21.11
2018-07-01T09:46:07.646Z,21.29
2018-07-01T09:47:07.639Z,21.53
2018-07-01T09:48:07.668Z,21.72
2018-07-01T09:49:07.664Z,21.85
2018-07-01T09:50:07.708Z,22.04
2018-07-01T09:51:07.738Z,22.07
2018-07-01T09:52:07.660Z,22.14
2018-07-01T09:53:07.780Z,22.25
2018-07-01T09:54:07.711Z,22.28
2018-07-01T09:55:07.679Z,22.28
2018-07-01T09:56:07.692Z,22.10
2018-07-01T09:57:07.712Z,22.27
2018-07-01T09:58:07.719Z,21.94
2018-07-01T09:59:07.678Z,21.90
2018-07-01T10:00:07.720Z,22.04
2018-07-01T10:01:07.859Z,22.01
2018-07-01T10:02:07.728Z,22.07
2018-07-01T10:03:07.720Z,22.01
2018-07-01T10:04:07.720Z,21.59
2018-07-01T10:05:07.732Z,21.19
2018-07-01T10:06:07.741Z,21.39
2018-07-01T10:07:07.777Z,21.74
2018-07-01T10:08:07.749Z,21.69
2018-07-01T10:09:07.757Z,21.53
2018-07-01T10:10:07.758Z,21.67
2018-07-01T10:11:08.613Z,21.78
2018-07-01T10:12:07.773Z,21.39
2018-07-01T10:13:07.789Z,21.45
2018-07-01T10:14:07.797Z,21.39
2018-07-01T10:15:07.767Z,21.42
2018-07-01T10:16:07.842Z,21.66
2018-07-01T10:17:07.891Z,21.92
2018-07-01T10:18:07.835Z,22.17
2018-07-01T10:19:07.880Z,22.13
2018-07-01T10:20:07.786Z,21.74
2018-07-01T10:21:08.580Z,21.39
2018-07-01T10:22:08.156Z,21.51
2018-07-01T10:23:07.859Z,21.56
2018-07-01T10:24:09.525Z,21.57
2018-07-01T10:25:07.812Z,21.41
2018-07-01T10:26:07.879Z,21.64
2018-07-01T10:27:07.939Z,21.99
2018-07-01T10:28:07.860Z,22.01
2018-07-01T10:29:07.835Z,21.94
2018-07-01T10:30:07.862Z,22.04
2018-07-01T10:31:08.439Z,21.91
2018-07-01T10:32:07.962Z,21.78
2018-07-01T10:33:07.858Z,22.23
2018-07-01T10:34:07.923Z,22.50
2018-07-01T10:35:08.473Z,22.67
2018-07-01T10:36:07.879Z,22.65
2018-07-01T10:37:08.457Z,22.02
2018-07-01T10:38:07.941Z,22.23
2018-07-01T10:39:07.918Z,22.13
2018-07-01T10:40:07.961Z,22.25
2018-07-01T10:41:07.987Z,22.23
2018-07-01T10:42:07.919Z,22.39
2018-07-01T10:43:07.914Z,22.67
2018-07-01T10:44:07.950Z,22.96
2018-07-01T10:45:07.928Z,23.17
2018-07-01T10:46:07.981Z,23.15
2018-07-01T10:47:07.970Z,23.17
2018-07-01T10:48:07.980Z,23.20
2018-07-01T10:49:07.961Z,23.26
2018-07-01T10:50:07.981Z,22.89
2018-07-01T10:51:08.001Z,23.04
2018-07-01T10:52:07.966Z,23.24
2018-07-01T10:53:07.975Z,23.39
2018-07-01T10:54:07.997Z,23.32
2018-07-01T10:55:08.010Z,23.17
2018-07-01T10:56:08.027Z,22.53
2018-07-01T10:57:08.448Z,22.47
2018-07-01T10:58:08.038Z,22.52
2018-07-01T10:59:08.112Z,22.60
2018-07-01T11:00:08.064Z,22.83
2018-07-01T11:01:08.053Z,23.02
2018-07-01T11:02:08.050Z,22.89
2018-07-01T11:03:08.040Z,22.92
2018-07-01T11:04:08.077Z,22.97
2018-07-01T11:05:08.073Z,23.11
2018-07-01T11:06:08.127Z,23.38
2018-07-01T11:07:08.083Z,23.53
2018-07-01T11:08:08.103Z,23.92
2018-07-01T11:09:08.099Z,23.65
2018-07-01T11:10:09.005Z,23.47
2018-07-01T11:11:08.100Z,23.05
2018-07-01T11:12:08.098Z,22.89
2018-07-01T11:13:08.149Z,22.60
2018-07-01T11:14:08.181Z,22.53
2018-07-01T11:15:08.149Z,22.83
2018-07-01T11:16:08.158Z,23.09
2018-07-01T11:17:08.181Z,23.15
2018-07-01T11:18:08.174Z,23.07
2018-07-01T11:19:08.165Z,23.32
2018-07-01T11:20:08.155Z,23.47
2018-07-01T11:21:08.209Z,23.75
2018-07-01T11:22:08.266Z,23.43
2018-07-01T11:23:08.183Z,23.20
2018-07-01T11:24:08.192Z,23.12
2018-07-01T11:25:08.199Z,23.01
2018-07-01T11:26:08.195Z,23.29
2018-07-01T11:27:08.482Z,23.75
2018-07-01T11:28:08.184Z,23.62
2018-07-01T11:29:08.225Z,23.39
2018-07-01T11:30:08.210Z,22.83
2018-07-01T11:31:08.214Z,22.54
2018-07-01T11:32:08.210Z,22.57
2018-07-01T11:33:08.248Z,22.52
2018-07-01T11:34:11.081Z,22.93
2018-07-01T11:35:08.296Z,23.26
2018-07-01T11:36:08.243Z,23.14
2018-07-01T11:37:08.270Z,23.05
2018-07-01T11:38:08.310Z,22.96
2018-07-01T11:39:08.276Z,23.12
2018-07-01T11:40:08.270Z,23.43
2018-07-01T11:41:08.297Z,23.57
2018-07-01T11:42:08.366Z,23.76
2018-07-01T11:43:08.326Z,23.87
2018-07-01T11:44:08.323Z,23.60
2018-07-01T11:45:08.291Z,23.87
2018-07-01T11:46:08.325Z,23.83
2018-07-01T11:47:08.303Z,23.97
2018-07-01T11:48:08.333Z,23.65
2018-07-01T11:49:08.368Z,23.65
2018-07-01T11:50:08.316Z,23.67
2018-07-01T11:51:08.358Z,23.72
2018-07-01T11:52:08.371Z,23.68
2018-07-01T11:53:08.331Z,23.77
2018-07-01T11:54:09.948Z,23.89
2018-07-01T11:55:08.382Z,23.98
2018-07-01T11:56:08.360Z,24.12
2018-07-01T11:57:08.394Z,24.02
2018-07-01T11:58:08.383Z,24.22
2018-07-01T11:59:08.378Z,24.31
2018-07-01T12:00:08.446Z,24.50
2018-07-01T12:01:08.505Z,24.61
2018-07-01T12:02:08.443Z,24.69
2018-07-01T12:03:08.415Z,24.83
2018-07-01T12:04:08.434Z,24.82
2018-07-01T12:05:16.665Z,24.29
2018-07-01T12:06:08.450Z,24.01
2018-07-01T12:07:08.469Z,23.47
2018-07-01T12:08:08.465Z,23.27
2018-07-01T12:09:08.436Z,23.47
2018-07-01T12:10:08.487Z,23.58
2018-07-01T12:11:16.009Z,23.86
2018-07-01T12:13:02.802Z,24.17
2018-07-01T12:14:02.826Z,24.17
2018-07-01T12:15:03.338Z,24.14
2018-07-01T12:16:03.788Z,24.04
2018-07-01T12:17:02.835Z,24.10
2018-07-01T12:18:03.371Z,24.23
2018-07-01T12:19:02.704Z,24.14
2018-07-01T12:20:03.344Z,23.82
2018-07-01T12:21:03.371Z,23.68
2018-07-01T12:22:02.612Z,23.61
2018-07-01T12:23:02.418Z,23.76
2018-07-01T12:24:02.423Z,23.83
2018-07-01T12:25:02.438Z,23.65
2018-07-01T12:26:02.438Z,23.77
2018-07-01T12:27:02.478Z,23.89
2018-07-01T12:28:02.440Z,24.16
2018-07-01T12:29:02.429Z,24.26
2018-07-01T12:30:02.427Z,24.53
2018-07-01T12:31:02.447Z,24.56
2018-07-01T12:32:02.503Z,24.16
2018-07-01T12:33:02.474Z,23.85
2018-07-01T12:34:02.464Z,23.58
2018-07-01T12:35:02.483Z,23.68
2018-07-01T12:36:02.489Z,23.94
2018-07-01T12:37:02.483Z,24.13
2018-07-01T12:38:02.475Z,23.90
2018-07-01T12:39:02.508Z,23.72
2018-07-01T12:40:02.554Z,23.55
2018-07-01T12:41:02.551Z,23.50
2018-07-01T12:42:02.572Z,23.61
2018-07-01T12:43:02.563Z,23.71
2018-07-01T12:44:02.544Z,23.85
2018-07-01T12:45:02.526Z,24.00
2018-07-01T12:46:02.529Z,23.71
2018-07-01T12:47:02.609Z,23.67
2018-07-01T12:48:02.599Z,23.55
2018-07-01T12:49:02.618Z,23.68
2018-07-01T12:50:02.586Z,23.71
2018-07-01T12:51:02.562Z,23.87
2018-07-01T12:52:02.565Z,24.12
2018-07-01T12:53:02.596Z,24.17
2018-07-01T12:54:02.591Z,24.37
2018-07-01T12:55:02.639Z,24.12
2018-07-01T12:56:02.616Z,23.85
2018-07-01T12:57:02.672Z,23.47
2018-07-01T12:58:02.668Z,23.24
2018-07-01T12:59:02.640Z,23.29
2018-07-01T13:00:02.616Z,23.34
2018-07-01T13:01:02.657Z,23.22
2018-07-01T13:02:02.627Z,23.09
2018-07-01T13:03:02.652Z,23.34
2018-07-01T13:04:02.676Z,23.76
2018-07-01T13:05:02.677Z,23.80
2018-07-01T13:06:02.688Z,24.02
2018-07-01T13:07:02.699Z,24.22
2018-07-01T13:08:02.722Z,24.27
2018-07-01T13:09:02.689Z,24.22
2018-07-01T13:10:02.706Z,24.19
2018-07-01T13:11:02.681Z,24.35
2018-07-01T13:12:02.833Z,24.47
2018-07-01T13:13:02.715Z,24.42
2018-07-01T13:14:02.740Z,24.56
2018-07-01T13:15:02.735Z,24.42
2018-07-01T13:16:02.806Z,24.38
2018-07-01T13:17:02.750Z,24.24
2018-07-01T13:18:02.722Z,24.02
2018-07-01T13:19:02.737Z,24.14
2018-07-01T13:20:02.735Z,24.24
2018-07-01T13:21:02.777Z,24.16
2018-07-01T13:22:02.774Z,24.17